sensor_id;sensor_type;location;lat;lon;timestamp;pressure;altitude;pressure_sealevel;temperature;humidity
51439;BME280;38816;51.142;-0.974;2023-08-24T00:01:08;100113.50;;;15.93;100.00
51439;BME280;38816;51.142;-0.974;2023-08-24T00:03:34;100128.22;;;15.93;100.00
51439;BME280;38816;51.142;-0.974;2023-08-24T00:06:00;100123.94;;;15.90;100.00
51439;BME280;38816;51.142;-0.974;2023-08-24T00:08:26;100123.06;;;15.88;100.00
51439;BME280;38816;51.142;-0.974;2023-08-24T00:10:52;100125.69;;;15.85;100.00
51439;BME280;38816;51.142;-0.974;2023-08-24T00:13:17;100132.59;;;15.83;100.00
51439;BME280;38816;51.142;-0.974;2023-08-24T00:15:43;100131.78;;;15.78;100.00
51439;BME280;38816;51.142;-0.974;2023-08-24T00:18:08;100135.28;;;15.73;100.00
51439;BME280;38816;51.142;-0.974;2023-08-24T00:20:34;100132.72;;;15.68;100.00
51439;BME280;38816;51.142;-0.974;2023-08-24T00:22:59;100133.59;;;15.61;100.00
51439;BME280;38816;51.142;-0.974;2023-08-24T00:25:25;100133.63;;;15.55;100.00
51439;BME280;38816;51.142;-0.974;2023-08-24T00:27:53;100131.94;;;15.48;100.00
51439;BME280;38816;51.142;-0.974;2023-08-24T00:30:18;100125.91;;;15.42;100.00
51439;BME280;38816;51.142;-0.974;2023-08-24T00:32:44;100119.03;;;15.38;100.00
51439;BME280;38816;51.142;-0.974;2023-08-24T00:35:09;100119.91;;;15.34;100.00
51439;BME280;38816;51.142;-0.974;2023-08-24T00:37:36;100129.44;;;15.32;100.00
51439;BME280;38816;51.142;-0.974;2023-08-24T00:40:04;100123.38;;;15.30;100.00
51439;BME280;38816;51.142;-0.974;2023-08-24T00:42:40;100115.63;;;15.27;100.00
51439;BME280;38816;51.142;-0.974;2023-08-24T00:45:07;100113.91;;;15.26;100.00
51439;BME280;38816;51.142;-0.974;2023-08-24T00:47:33;100111.34;;;15.23;100.00
51439;BME280;38816;51.142;-0.974;2023-08-24T00:50:02;100102.69;;;15.21;100.00
51439;BME280;38816;51.142;-0.974;2023-08-24T00:52:31;100107.03;;;15.19;100.00
51439;BME280;38816;51.142;-0.974;2023-08-24T00:54:58;100103.63;;;15.14;100.00
51439;BME280;38816;51.142;-0.974;2023-08-24T00:57:28;100091.50;;;15.13;100.00
51439;BME280;38816;51.142;-0.974;2023-08-24T00:59:55;100087.22;;;15.10;100.00
51439;BME280;38816;51.142;-0.974;2023-08-24T01:02:21;100082.91;;;15.08;100.00
51439;BME280;38816;51.142;-0.974;2023-08-24T01:04:47;100093.31;;;15.05;100.00
51439;BME280;38816;51.142;-0.974;2023-08-24T01:07:13;100099.31;;;15.04;100.00
51439;BME280;38816;51.142;-0.974;2023-08-24T01:09:39;100091.56;;;15.05;100.00
51439;BME280;38816;51.142;-0.974;2023-08-24T01:17:26;100077.72;;;15.14;100.00
51439;BME280;38816;51.142;-0.974;2023-08-24T01:19:54;100065.63;;;15.14;100.00
51439;BME280;38816;51.142;-0.974;2023-08-24T01:27:33;100056.13;;;15.15;100.00
51439;BME280;38816;51.142;-0.974;2023-08-24T01:30:02;100050.94;;;15.16;100.00
51439;BME280;38816;51.142;-0.974;2023-08-24T01:32:33;100029.38;;;15.14;100.00
51439;BME280;38816;51.142;-0.974;2023-08-24T01:35:07;100028.47;;;15.20;100.00
51439;BME280;38816;51.142;-0.974;2023-08-24T01:37:34;100022.47;;;15.18;100.00
51439;BME280;38816;51.142;-0.974;2023-08-24T01:43:03;99993.91;;;15.29;100.00
51439;BME280;38816;51.142;-0.974;2023-08-24T01:45:29;99970.56;;;15.30;100.00
51439;BME280;38816;51.142;-0.974;2023-08-24T01:47:56;99967.94;;;15.35;100.00
51439;BME280;38816;51.142;-0.974;2023-08-24T01:50:22;99976.56;;;15.35;100.00
51439;BME280;38816;51.142;-0.974;2023-08-24T01:52:49;99983.50;;;15.35;100.00
51439;BME280;38816;51.142;-0.974;2023-08-24T01:55:18;99983.56;;;15.27;100.00
51439;BME280;38816;51.142;-0.974;2023-08-24T01:57:43;99987.06;;;15.20;100.00
51439;BME280;38816;51.142;-0.974;2023-08-24T02:00:09;99994.81;;;15.17;100.00
51439;BME280;38816;51.142;-0.974;2023-08-24T02:02:35;99991.38;;;15.16;100.00
51439;BME280;38816;51.142;-0.974;2023-08-24T02:05:02;99984.53;;;15.11;100.00
51439;BME280;38816;51.142;-0.974;2023-08-24T02:07:28;99975.94;;;15.06;100.00
51439;BME280;38816;51.142;-0.974;2023-08-24T02:09:53;99972.50;;;15.01;100.00
51439;BME280;38816;51.142;-0.974;2023-08-24T02:12:19;99969.94;;;14.94;100.00
51439;BME280;38816;51.142;-0.974;2023-08-24T02:14:44;99970.84;;;14.86;100.00
51439;BME280;38816;51.142;-0.974;2023-08-24T02:17:09;99958.81;;;14.80;100.00
51439;BME280;38816;51.142;-0.974;2023-08-24T02:19:35;99954.53;;;14.75;100.00
51439;BME280;38816;51.142;-0.974;2023-08-24T02:22:00;99959.72;;;14.73;100.00
51439;BME280;38816;51.142;-0.974;2023-08-24T02:24:26;99955.41;;;14.72;100.00
51439;BME280;38816;51.142;-0.974;2023-08-24T02:26:51;99952.84;;;14.67;100.00
51439;BME280;38816;51.142;-0.974;2023-08-24T02:29:18;99964.06;;;14.65;100.00
51439;BME280;38816;51.142;-0.974;2023-08-24T02:31:43;99983.06;;;14.59;100.00
51439;BME280;38816;51.142;-0.974;2023-08-24T02:34:09;99975.31;;;14.56;100.00
51439;BME280;38816;51.142;-0.974;2023-08-24T02:36:34;99974.44;;;14.59;100.00
51439;BME280;38816;51.142;-0.974;2023-08-24T02:39:00;99974.44;;;14.57;100.00
51439;BME280;38816;51.142;-0.974;2023-08-24T02:41:26;99973.59;;;14.57;100.00
51439;BME280;38816;51.142;-0.974;2023-08-24T02:43:52;99977.03;;;14.57;100.00
51439;BME280;38816;51.142;-0.974;2023-08-24T02:46:18;99973.59;;;14.55;100.00
51439;BME280;38816;51.142;-0.974;2023-08-24T02:48:44;99970.16;;;14.56;100.00
51439;BME280;38816;51.142;-0.974;2023-08-24T02:51:10;99967.53;;;14.61;100.00
51439;BME280;38816;51.142;-0.974;2023-08-24T02:53:36;99973.56;;;14.64;100.00
51439;BME280;38816;51.142;-0.974;2023-08-24T02:56:02;99950.25;;;14.71;100.00
51439;BME280;38816;51.142;-0.974;2023-08-24T02:58:28;99942.41;;;14.81;100.00
51439;BME280;38816;51.142;-0.974;2023-08-24T03:00:53;99941.50;;;14.91;100.00
51439;BME280;38816;51.142;-0.974;2023-08-24T03:03:19;99950.94;;;15.02;100.00
51439;BME280;38816;51.142;-0.974;2023-08-24T03:06:00;99953.47;;;15.11;100.00
51439;BME280;38816;51.142;-0.974;2023-08-24T03:08:26;99943.94;;;15.17;100.00
51439;BME280;38816;51.142;-0.974;2023-08-24T03:10:51;99924.88;;;15.25;100.00
51439;BME280;38816;51.142;-0.974;2023-08-24T03:13:17;99916.22;;;15.29;100.00
51439;BME280;38816;51.142;-0.974;2023-08-24T03:15:42;99914.47;;;15.32;100.00
51439;BME280;38816;51.142;-0.974;2023-08-24T03:18:12;99930.00;;;15.32;100.00
51439;BME280;38816;51.142;-0.974;2023-08-24T03:20:38;99929.97;;;15.35;100.00
51439;BME280;38816;51.142;-0.974;2023-08-24T03:23:04;99923.06;;;15.37;100.00
51439;BME280;38816;51.142;-0.974;2023-08-24T03:25:31;99920.47;;;15.34;100.00
51439;BME280;38816;51.142;-0.974;2023-08-24T03:27:56;99934.31;;;15.30;100.00
51439;BME280;38816;51.142;-0.974;2023-08-24T03:30:22;99944.75;;;15.23;100.00
51439;BME280;38816;51.142;-0.974;2023-08-24T03:32:48;99937.88;;;15.17;100.00
51439;BME280;38816;51.142;-0.974;2023-08-24T03:35:13;99918.91;;;15.12;100.00
51439;BME280;38816;51.142;-0.974;2023-08-24T03:37:40;99913.75;;;15.13;100.00
51439;BME280;38816;51.142;-0.974;2023-08-24T03:40:06;99886.97;;;15.14;100.00
51439;BME280;38816;51.142;-0.974;2023-08-24T03:42:32;99860.19;;;15.17;100.00
51439;BME280;38816;51.142;-0.974;2023-08-24T03:44:59;99842.03;;;15.23;100.00
51439;BME280;38816;51.142;-0.974;2023-08-24T03:47:25;99841.13;;;15.26;100.00
51439;BME280;38816;51.142;-0.974;2023-08-24T03:49:50;99846.34;;;15.24;100.00
51439;BME280;38816;51.142;-0.974;2023-08-24T03:52:15;99840.28;;;15.24;100.00
51439;BME280;38816;51.142;-0.974;2023-08-24T03:54:41;99822.16;;;15.25;100.00
51439;BME280;38816;51.142;-0.974;2023-08-24T03:57:06;99856.66;;;15.27;100.00
51439;BME280;38816;51.142;-0.974;2023-08-24T03:59:32;99905.06;;;15.22;100.00
51439;BME280;38816;51.142;-0.974;2023-08-24T04:01:57;99941.34;;;15.16;100.00
51439;BME280;38816;51.142;-0.974;2023-08-24T04:04:27;99916.34;;;15.13;100.00
51439;BME280;38816;51.142;-0.974;2023-08-24T04:06:52;99894.81;;;15.05;100.00
51439;BME280;38816;51.142;-0.974;2023-08-24T04:09:18;99888.81;;;15.00;100.00
51439;BME280;38816;51.142;-0.974;2023-08-24T04:11:44;99887.94;;;15.01;100.00
51439;BME280;38816;51.142;-0.974;2023-08-24T04:14:09;99888.75;;;15.08;100.00
51439;BME280;38816;51.142;-0.974;2023-08-24T04:16:35;99886.97;;;15.14;100.00
51439;BME280;38816;51.142;-0.974;2023-08-24T04:19:01;99886.06;;;15.20;100.00
51439;BME280;38816;51.142;-0.974;2023-08-24T04:21:26;99874.78;;;15.29;100.00
51439;BME280;38816;51.142;-0.974;2023-08-24T04:23:52;99875.56;;;15.35;100.00
51439;BME280;38816;51.142;-0.974;2023-08-24T04:26:18;99876.38;;;15.42;100.00
51439;BME280;38816;51.142;-0.974;2023-08-24T04:28:43;99878.91;;;15.48;100.00
51439;BME280;38816;51.142;-0.974;2023-08-24T04:31:09;99884.03;;;15.53;100.00
51439;BME280;38816;51.142;-0.974;2023-08-24T04:33:34;99892.69;;;15.52;100.00
51439;BME280;38816;51.142;-0.974;2023-08-24T04:36:01;99891.88;;;15.50;100.00
51439;BME280;38816;51.142;-0.974;2023-08-24T04:38:28;99900.47;;;15.52;100.00
51439;BME280;38816;51.142;-0.974;2023-08-24T04:40:55;99915.94;;;15.58;100.00
51439;BME280;38816;51.142;-0.974;2023-08-24T04:43:22;99908.13;;;15.65;100.00
51439;BME280;38816;51.142;-0.974;2023-08-24T04:45:57;99905.50;;;15.72;100.00
51439;BME280;38816;51.142;-0.974;2023-08-24T04:48:24;99893.34;;;15.75;100.00
51439;BME280;38816;51.142;-0.974;2023-08-24T04:50:50;99892.44;;;15.79;100.00
51439;BME280;38816;51.142;-0.974;2023-08-24T04:53:17;99894.13;;;15.83;100.00
51439;BME280;38816;51.142;-0.974;2023-08-24T04:55:43;99911.41;;;15.86;100.00
51439;BME280;38816;51.142;-0.974;2023-08-24T04:58:10;99904.41;;;15.92;100.00
51439;BME280;38816;51.142;-0.974;2023-08-24T05:00:36;99902.63;;;15.99;100.00
51439;BME280;38816;51.142;-0.974;2023-08-24T05:03:06;99896.47;;;16.08;100.00
51439;BME280;38816;51.142;-0.974;2023-08-24T05:05:32;99882.56;;;16.13;100.00
51439;BME280;38816;51.142;-0.974;2023-08-24T05:07:59;99891.19;;;16.17;100.00
51439;BME280;38816;51.142;-0.974;2023-08-24T05:10:25;99933.53;;;16.17;100.00
51439;BME280;38816;51.142;-0.974;2023-08-24T05:12:51;99933.56;;;16.11;100.00
51439;BME280;38816;51.142;-0.974;2023-08-24T05:15:17;99918.97;;;16.03;100.00
51439;BME280;38816;51.142;-0.974;2023-08-24T05:17:42;99928.53;;;15.98;100.00
51439;BME280;38816;51.142;-0.974;2023-08-24T05:20:08;99921.72;;;15.90;100.00
51439;BME280;38816;51.142;-0.974;2023-08-24T05:22:37;99911.41;;;15.84;100.00
51439;BME280;38816;51.142;-0.974;2023-08-24T05:25:03;99901.94;;;15.82;100.00
51439;BME280;38816;51.142;-0.974;2023-08-24T05:27:30;99892.47;;;15.81;100.00
51439;BME280;38816;51.142;-0.974;2023-08-24T05:29:55;99888.97;;;15.80;100.00
51439;BME280;38816;51.142;-0.974;2023-08-24T05:32:21;99867.41;;;15.81;100.00
51439;BME280;38816;51.142;-0.974;2023-08-24T05:34:47;99862.16;;;15.86;100.00
51439;BME280;38816;51.142;-0.974;2023-08-24T05:37:12;99857.78;;;15.89;100.00
51439;BME280;38816;51.142;-0.974;2023-08-24T05:39:38;99850.88;;;15.88;100.00
51439;BME280;38816;51.142;-0.974;2023-08-24T05:42:04;99844.00;;;15.84;100.00
51439;BME280;38816;51.142;-0.974;2023-08-24T05:44:29;99852.63;;;15.85;100.00
51439;BME280;38816;51.142;-0.974;2023-08-24T05:46:55;99859.56;;;15.86;100.00
51439;BME280;38816;51.142;-0.974;2023-08-24T05:49:20;99857.78;;;15.89;100.00
51439;BME280;38816;51.142;-0.974;2023-08-24T05:51:46;99865.53;;;15.92;100.00
51439;BME280;38816;51.142;-0.974;2023-08-24T05:54:11;99857.72;;;15.95;100.00
51439;BME280;38816;51.142;-0.974;2023-08-24T05:56:38;99855.97;;;15.98;100.00
51439;BME280;38816;51.142;-0.974;2023-08-24T05:59:04;99855.94;;;16.01;100.00
51439;BME280;38816;51.142;-0.974;2023-08-24T06:01:29;99867.97;;;16.05;100.00
51439;BME280;38816;51.142;-0.974;2023-08-24T06:03:55;99860.19;;;16.06;100.00
51439;BME280;38816;51.142;-0.974;2023-08-24T06:06:20;99848.91;;;16.07;100.00
51439;BME280;38816;51.142;-0.974;2023-08-24T06:08:46;99845.44;;;16.10;100.00
51439;BME280;38816;51.142;-0.974;2023-08-24T06:11:11;99846.31;;;16.10;100.00
51439;BME280;38816;51.142;-0.974;2023-08-24T06:13:37;99848.84;;;16.12;100.00
51439;BME280;38816;51.142;-0.974;2023-08-24T06:16:02;99845.44;;;16.10;100.00
51439;BME280;38816;51.142;-0.974;2023-08-24T06:18:28;99842.75;;;16.16;100.00
51439;BME280;38816;51.142;-0.974;2023-08-24T06:20:54;99846.16;;;16.23;100.00
51439;BME280;38816;51.142;-0.974;2023-08-24T06:23:20;99834.00;;;16.26;100.00
51439;BME280;38816;51.142;-0.974;2023-08-24T06:25:47;99833.94;;;16.29;100.00
51439;BME280;38816;51.142;-0.974;2023-08-24T06:28:13;99831.31;;;16.32;100.00
51439;BME280;38816;51.142;-0.974;2023-08-24T06:30:40;99849.41;;;16.37;100.00
51439;BME280;38816;51.142;-0.974;2023-08-24T06:33:06;99842.41;;;16.42;100.00
51439;BME280;38816;51.142;-0.974;2023-08-24T06:35:35;99851.84;;;16.49;100.00
51439;BME280;38816;51.142;-0.974;2023-08-24T06:38:01;99855.19;;;16.56;100.00
51439;BME280;38816;51.142;-0.974;2023-08-24T06:40:26;99863.81;;;16.59;100.00
51439;BME280;38816;51.142;-0.974;2023-08-24T06:42:52;99867.25;;;16.60;100.00
51439;BME280;38816;51.142;-0.974;2023-08-24T06:45:17;99864.66;;;16.60;100.00
51439;BME280;38816;51.142;-0.974;2023-08-24T06:47:43;99868.06;;;16.63;100.00
51439;BME280;38816;51.142;-0.974;2023-08-24T06:50:10;99862.00;;;16.64;100.00
51439;BME280;38816;51.142;-0.974;2023-08-24T06:52:35;99854.19;;;16.66;100.00
51439;BME280;38816;51.142;-0.974;2023-08-24T06:55:01;99868.94;;;16.64;100.00
51439;BME280;38816;51.142;-0.974;2023-08-24T06:57:27;99872.38;;;16.64;100.00
51439;BME280;38816;51.142;-0.974;2023-08-24T06:59:52;99868.97;;;16.61;100.00
51439;BME280;38816;51.142;-0.974;2023-08-24T07:02:18;99863.78;;;16.61;100.00
51439;BME280;38816;51.142;-0.974;2023-08-24T07:04:44;99855.97;;;16.64;100.00
51439;BME280;38816;51.142;-0.974;2023-08-24T07:07:09;99851.59;;;16.66;100.00
51439;BME280;38816;51.142;-0.974;2023-08-24T07:09:35;99837.69;;;16.70;100.00
51439;BME280;38816;51.142;-0.974;2023-08-24T07:12:02;99825.56;;;16.75;100.00
51439;BME280;38816;51.142;-0.974;2023-08-24T07:14:28;99826.34;;;16.79;100.00
51439;BME280;38816;51.142;-0.974;2023-08-24T07:16:54;99815.94;;;16.80;100.00
51439;BME280;38816;51.142;-0.974;2023-08-24T07:19:19;99789.91;;;16.85;100.00
51439;BME280;38816;51.142;-0.974;2023-08-24T07:21:46;99785.50;;;16.88;100.00
51439;BME280;38816;51.142;-0.974;2023-08-24T07:24:11;99776.78;;;16.92;100.00
51439;BME280;38816;51.142;-0.974;2023-08-24T07:26:36;99793.09;;;17.01;100.00
51439;BME280;38816;51.142;-0.974;2023-08-24T07:29:02;99804.22;;;17.09;100.00
51439;BME280;38816;51.142;-0.974;2023-08-24T07:31:28;99812.66;;;17.20;100.00
51439;BME280;38816;51.142;-0.974;2023-08-24T07:33:53;99805.69;;;17.24;100.00
51439;BME280;38816;51.142;-0.974;2023-08-24T07:36:18;99809.09;;;17.27;100.00
51439;BME280;38816;51.142;-0.974;2023-08-24T07:38:47;99796.00;;;17.32;100.00
51439;BME280;38816;51.142;-0.974;2023-08-24T07:41:13;99777.75;;;17.36;100.00
51439;BME280;38816;51.142;-0.974;2023-08-24T07:43:38;99758.56;;;17.43;100.00
51439;BME280;38816;51.142;-0.974;2023-08-24T07:46:04;99740.09;;;17.57;100.00
51439;BME280;38816;51.142;-0.974;2023-08-24T07:48:30;99741.56;;;17.69;100.00
51439;BME280;38816;51.142;-0.974;2023-08-24T07:50:55;99733.66;;;17.77;100.00
51439;BME280;38816;51.142;-0.974;2023-08-24T07:53:21;99735.31;;;17.81;100.00
51439;BME280;38816;51.142;-0.974;2023-08-24T07:55:46;99721.41;;;17.83;100.00
51439;BME280;38816;51.142;-0.974;2023-08-24T07:58:12;99707.50;;;17.84;100.00
51439;BME280;38816;51.142;-0.974;2023-08-24T08:00:38;99699.69;;;17.84;100.00
51439;BME280;38816;51.142;-0.974;2023-08-24T08:03:04;99684.00;;;17.87;100.00
51439;BME280;38816;51.142;-0.974;2023-08-24T08:05:29;99681.28;;;17.93;100.00
51439;BME280;38816;51.142;-0.974;2023-08-24T08:07:55;99709.78;;;17.98;100.00
51439;BME280;38816;51.142;-0.974;2023-08-24T08:10:20;99740.91;;;18.03;100.00
51439;BME280;38816;51.142;-0.974;2023-08-24T08:12:46;99732.94;;;18.09;100.00
51439;BME280;38816;51.142;-0.974;2023-08-24T08:15:12;99727.28;;;18.30;100.00
51439;BME280;38816;51.142;-0.974;2023-08-24T08:17:38;99716.25;;;18.55;100.00
51439;BME280;38816;51.142;-0.974;2023-08-24T08:20:04;99706.06;;;18.81;100.00
51439;BME280;38816;51.142;-0.974;2023-08-24T08:22:29;99711.63;;;19.02;100.00
51439;BME280;38816;51.142;-0.974;2023-08-24T08:24:55;99710.44;;;19.13;100.00
51439;BME280;38816;51.142;-0.974;2023-08-24T08:27:22;99710.31;;;19.18;100.00
51439;BME280;38816;51.142;-0.974;2023-08-24T08:29:48;99733.06;;;19.11;100.00
51439;BME280;38816;51.142;-0.974;2023-08-24T08:32:13;99749.00;;;19.01;100.00
51439;BME280;38816;51.142;-0.974;2023-08-24T08:34:39;99753.72;;;18.85;100.00
51439;BME280;38816;51.142;-0.974;2023-08-24T08:37:04;99738.47;;;18.71;100.00
51439;BME280;38816;51.142;-0.974;2023-08-24T08:39:31;99734.16;;;18.70;100.00
51439;BME280;38816;51.142;-0.974;2023-08-24T08:41:57;99750.44;;;18.78;100.00
51439;BME280;38816;51.142;-0.974;2023-08-24T08:44:23;99764.09;;;18.86;100.00
51439;BME280;38816;51.142;-0.974;2023-08-24T08:46:49;99786.66;;;18.87;100.00
51439;BME280;38816;51.142;-0.974;2023-08-24T08:49:16;99792.09;;;18.78;100.00
51439;BME280;38816;51.142;-0.974;2023-08-24T08:51:42;99808.69;;;18.74;100.00
51439;BME280;38816;51.142;-0.974;2023-08-24T08:54:08;99820.09;;;18.67;100.00
51439;BME280;38816;51.142;-0.974;2023-08-24T08:56:34;99836.59;;;18.69;100.00
51439;BME280;38816;51.142;-0.974;2023-08-24T08:59:00;99826.75;;;18.80;100.00
51439;BME280;38816;51.142;-0.974;2023-08-24T09:01:27;99807.28;;;18.96;100.00
51439;BME280;38816;51.142;-0.974;2023-08-24T09:03:53;99792.88;;;19.16;100.00
51439;BME280;38816;51.142;-0.974;2023-08-24T09:06:19;99792.41;;;19.34;100.00
51439;BME280;38816;51.142;-0.974;2023-08-24T09:08:45;99783.28;;;19.51;100.00
51439;BME280;38816;51.142;-0.974;2023-08-24T09:11:12;99778.50;;;19.66;100.00
51439;BME280;38816;51.142;-0.974;2023-08-24T09:13:37;99788.53;;;19.82;100.00
51439;BME280;38816;51.142;-0.974;2023-08-24T09:16:06;99769.09;;;19.92;100.00
51439;BME280;38816;51.142;-0.974;2023-08-24T09:18:36;99756.81;;;19.95;100.00
51439;BME280;38816;51.142;-0.974;2023-08-24T09:21:09;99762.03;;;19.95;100.00
51439;BME280;38816;51.142;-0.974;2023-08-24T09:23:35;99765.56;;;19.93;100.00
51439;BME280;38816;51.142;-0.974;2023-08-24T09:26:00;99756.47;;;20.06;100.00
51439;BME280;38816;51.142;-0.974;2023-08-24T09:28:26;99751.03;;;20.14;100.00
51439;BME280;38816;51.142;-0.974;2023-08-24T09:30:54;99752.41;;;20.26;100.00
51439;BME280;38816;51.142;-0.974;2023-08-24T09:33:20;99743.56;;;20.58;100.00
51439;BME280;38816;51.142;-0.974;2023-08-24T09:35:54;99745.88;;;20.93;100.00
51439;BME280;38816;51.142;-0.974;2023-08-24T09:38:29;99761.22;;;21.03;100.00
51439;BME280;38816;51.142;-0.974;2023-08-24T09:40:55;99755.75;;;21.10;100.00
51439;BME280;38816;51.142;-0.974;2023-08-24T09:43:22;99744.00;;;20.97;100.00
51439;BME280;38816;51.142;-0.974;2023-08-24T09:45:56;99746.94;;;20.88;100.00
51439;BME280;38816;51.142;-0.974;2023-08-24T09:48:22;99746.41;;;20.78;100.00
51439;BME280;38816;51.142;-0.974;2023-08-24T09:50:49;99746.50;;;20.75;100.00
51439;BME280;38816;51.142;-0.974;2023-08-24T09:53:20;99739.78;;;20.68;100.00
51439;BME280;38816;51.142;-0.974;2023-08-24T09:55:53;99744.44;;;20.58;100.00
51439;BME280;38816;51.142;-0.974;2023-08-24T09:58:21;99746.09;;;20.61;100.00
51439;BME280;38816;51.142;-0.974;2023-08-24T10:00:47;99751.78;;;20.73;100.00
51439;BME280;38816;51.142;-0.974;2023-08-24T10:03:16;99756.97;;;21.00;100.00
51439;BME280;38816;51.142;-0.974;2023-08-24T10:05:47;99756.88;;;21.28;100.00
51439;BME280;38816;51.142;-0.974;2023-08-24T10:08:17;99757.91;;;21.49;100.00
51439;BME280;38816;51.142;-0.974;2023-08-24T10:10:46;99760.81;;;21.65;100.00
51439;BME280;38816;51.142;-0.974;2023-08-24T10:13:19;99772.19;;;21.64;100.00
51439;BME280;38816;51.142;-0.974;2023-08-24T10:15:47;99769.41;;;21.68;100.00
51439;BME280;38816;51.142;-0.974;2023-08-24T10:18:15;99777.59;;;21.59;84.11
51439;BME280;38816;51.142;-0.974;2023-08-24T10:20:41;99767.97;;;21.60;79.65
51439;BME280;38816;51.142;-0.974;2023-08-24T10:23:09;99767.00;;;21.86;78.58
51439;BME280;38816;51.142;-0.974;2023-08-24T10:25:36;99756.31;;;22.15;79.65
51439;BME280;38816;51.142;-0.974;2023-08-24T10:28:01;99769.84;;;22.27;83.15
51439;BME280;38816;51.142;-0.974;2023-08-24T10:30:28;99772.16;;;22.34;83.46
51439;BME280;38816;51.142;-0.974;2023-08-24T10:32:56;99775.69;;;22.33;79.07
51439;BME280;38816;51.142;-0.974;2023-08-24T10:35:23;99767.34;;;22.45;82.65
51439;BME280;38816;51.142;-0.974;2023-08-24T10:37:52;99771.97;;;22.61;77.96
51439;BME280;38816;51.142;-0.974;2023-08-24T10:40:34;99785.75;;;22.86;68.24
51439;BME280;38816;51.142;-0.974;2023-08-24T10:43:04;99781.53;;;22.84;65.40
51439;BME280;38816;51.142;-0.974;2023-08-24T10:45:58;99776.97;;;22.87;65.67
51439;BME280;38816;51.142;-0.974;2023-08-24T10:48:25;99776.97;;;23.09;65.14
51439;BME280;38816;51.142;-0.974;2023-08-24T10:51:18;99772.31;;;23.36;72.06
51439;BME280;38816;51.142;-0.974;2023-08-24T10:56:22;99770.59;;;23.56;67.26
51439;BME280;38816;51.142;-0.974;2023-08-24T10:59:13;99776.59;;;23.58;64.33
51439;BME280;38816;51.142;-0.974;2023-08-24T11:01:42;99775.72;;;23.38;61.46
51439;BME280;38816;51.142;-0.974;2023-08-24T11:04:08;99780.03;;;23.19;62.01
51439;BME280;38816;51.142;-0.974;2023-08-24T11:06:34;99769.19;;;23.08;63.78
51439;BME280;38816;51.142;-0.974;2023-08-24T11:09:09;99756.78;;;23.11;64.09
51439;BME280;38816;51.142;-0.974;2023-08-24T11:11:42;99755.88;;;23.12;64.98
51439;BME280;38816;51.142;-0.974;2023-08-24T11:14:17;99746.56;;;23.25;65.94
51439;BME280;38816;51.142;-0.974;2023-08-24T11:16:57;99742.88;;;23.30;68.84
51439;BME280;38816;51.142;-0.974;2023-08-24T11:19:23;99745.69;;;23.25;66.17
51439;BME280;38816;51.142;-0.974;2023-08-24T11:21:51;99747.28;;;23.09;66.82
51439;BME280;38816;51.142;-0.974;2023-08-24T11:24:16;99747.28;;;22.87;70.15
51439;BME280;38816;51.142;-0.974;2023-08-24T11:26:44;99737.53;;;22.70;71.42
51439;BME280;38816;51.142;-0.974;2023-08-24T11:29:10;99745.59;;;22.65;73.49
51439;BME280;38816;51.142;-0.974;2023-08-24T11:31:36;99744.88;;;22.62;74.14
51439;BME280;38816;51.142;-0.974;2023-08-24T11:34:02;99745.72;;;22.62;76.05
51439;BME280;38816;51.142;-0.974;2023-08-24T11:36:38;99742.72;;;22.71;76.49
51439;BME280;38816;51.142;-0.974;2023-08-24T11:39:06;99739.34;;;22.68;74.59
51439;BME280;38816;51.142;-0.974;2023-08-24T11:41:31;99738.69;;;22.63;77.04
51439;BME280;38816;51.142;-0.974;2023-08-24T11:44:00;99731.88;;;22.59;77.82
51439;BME280;38816;51.142;-0.974;2023-08-24T11:46:28;99716.81;;;22.64;78.82
51439;BME280;38816;51.142;-0.974;2023-08-24T11:48:54;99716.69;;;22.67;77.27
51439;BME280;38816;51.142;-0.974;2023-08-24T11:51:19;99713.16;;;22.68;77.70
51439;BME280;38816;51.142;-0.974;2023-08-24T11:53:46;99724.94;;;22.78;79.42
51439;BME280;38816;51.142;-0.974;2023-08-24T11:56:13;99725.56;;;22.85;78.85
51439;BME280;38816;51.142;-0.974;2023-08-24T11:58:42;99726.47;;;22.84;78.00
51439;BME280;38816;51.142;-0.974;2023-08-24T12:01:08;99713.69;;;22.76;75.43
51439;BME280;38816;51.142;-0.974;2023-08-24T12:03:35;99704.38;;;22.69;78.96
51439;BME280;38816;51.142;-0.974;2023-08-24T12:06:01;99696.59;;;22.67;84.86
51439;BME280;38816;51.142;-0.974;2023-08-24T12:08:29;99691.94;;;22.54;83.78
51439;BME280;38816;51.142;-0.974;2023-08-24T12:10:55;99705.28;;;22.47;83.25
51439;BME280;38816;51.142;-0.974;2023-08-24T12:13:21;99706.63;;;22.36;75.75
51439;BME280;38816;51.142;-0.974;2023-08-24T12:15:47;99705.41;;;22.22;71.58
51439;BME280;38816;51.142;-0.974;2023-08-24T12:18:15;99706.69;;;22.12;71.15
51439;BME280;38816;51.142;-0.974;2023-08-24T12:20:41;99700.63;;;22.10;69.14
51439;BME280;38816;51.142;-0.974;2023-08-24T12:23:07;99692.09;;;22.05;69.67
51439;BME280;38816;51.142;-0.974;2023-08-24T12:25:53;99702.16;;;21.94;70.22
51439;BME280;38816;51.142;-0.974;2023-08-24T12:28:19;99692.34;;;21.77;71.51
51439;BME280;38816;51.142;-0.974;2023-08-24T12:30:51;99688.31;;;21.68;73.45
51439;BME280;38816;51.142;-0.974;2023-08-24T12:35:48;99683.19;;;21.65;76.32
51439;BME280;38816;51.142;-0.974;2023-08-24T12:38:13;99676.88;;;21.71;78.37
51439;BME280;38816;51.142;-0.974;2023-08-24T12:40:39;99672.34;;;21.74;78.51
51439;BME280;38816;51.142;-0.974;2023-08-24T12:43:04;99668.47;;;21.63;78.09
51439;BME280;38816;51.142;-0.974;2023-08-24T12:45:31;99666.41;;;21.47;80.00
51439;BME280;38816;51.142;-0.974;2023-08-24T12:47:56;99675.88;;;21.27;82.14
51439;BME280;38816;51.142;-0.974;2023-08-24T12:50:22;99684.56;;;21.04;85.30
51439;BME280;38816;51.142;-0.974;2023-08-24T12:52:47;99680.25;;;20.78;88.12
51439;BME280;38816;51.142;-0.974;2023-08-24T12:55:13;99668.97;;;20.51;92.81
51439;BME280;38816;51.142;-0.974;2023-08-24T12:57:38;99658.59;;;20.21;98.78